Time;durP1;ratioP1;P1;durP2;ratioP2;P2;SDS_P1;SDS_P2;PMS_P1;PMS_P2;Temp;Humidity;BMP_temperature;BMP_pressure;BME280_temperature;BME280_humidity;BME280_pressure;Samples;Min_cycle;Max_cycle;Signal;HPM_P1;HPM_P2
2022/09/25 00:00:58;;;;;;;35.53;25.50;;;;;;;12.86;100.00;100026.19;4889794;29;20403;-76
2022/09/25 00:03:26;;;;;;;32.28;22.73;;;;;;;12.88;100.00;100020.78;4897460;29;20049;-75
2022/09/25 00:06:00;;;;;;;32.95;23.85;;;;;;;12.89;100.00;100028.66;4892338;29;20048;-71
2022/09/25 00:08:27;;;;;;;33.80;24.90;;;;;;;12.92;100.00;100031.09;4878825;29;20415;-72
2022/09/25 00:10:54;;;;;;;34.22;25.05;;;;;;;12.76;100.00;99997.59;4892190;29;20056;-74
2022/09/25 00:13:21;;;;;;;32.67;24.08;;;;;;;12.94;100.00;100023.88;4885099;29;20412;-75
2022/09/25 00:15:50;;;;;;;33.92;24.98;;;;;;;12.93;100.00;100030.16;4890880;29;20052;-74
2022/09/25 00:19:48;;;;;;;33.70;24.02;;;;;;;12.75;100.00;99994.09;4884029;29;20515;-73
2022/09/25 00:21:11;;;;;;;34.17;25.70;;;;;;;12.87;100.00;100024.38;4891041;29;20064;-74
2022/09/25 00:23:38;;;;;;;34.15;24.95;;;;;;;12.87;100.00;100024.38;4887548;29;20056;-74
2022/09/25 00:26:07;;;;;;;36.45;25.20;;;;;;;12.89;100.00;100025.13;4890989;29;20053;-73
2022/09/25 00:28:38;;;;;;;38.65;26.85;;;;;;;12.91;100.00;100033.84;4890959;29;20052;-74
2022/09/25 00:31:06;;;;;;;35.28;25.17;;;;;;;12.88;100.00;100029.59;4883397;29;20415;-74
2022/09/25 00:33:34;;;;;;;37.70;26.13;;;;;;;12.84;100.00;100028.06;4886759;29;20135;-74
2022/09/25 00:36:06;;;;;;;40.30;27.15;;;;;;;12.74;100.00;100021.63;4885443;29;20507;-73
2022/09/25 00:38:34;;;;;;;37.90;26.65;;;;;;;12.76;100.00;100029.47;4887345;29;20087;-76
2022/09/25 00:41:01;;;;;;;38.97;25.92;;;;;;;12.75;100.00;100023.31;4889443;29;20613;-76
2022/09/25 00:43:36;;;;;;;35.65;25.35;;;;;;;12.81;100.00;100012.31;4894380;29;20059;-74
2022/09/25 00:46:09;;;;;;;37.53;26.77;;;;;;;12.79;100.00;100003.59;4891529;29;20091;-74
2022/09/25 00:48:38;;;;;;;35.15;25.15;;;;;;;12.89;100.00;100017.16;4888373;29;20092;-74
2022/09/25 00:51:05;;;;;;;39.63;27.25;;;;;;;12.77;100.00;99983.38;4887372;29;20503;-73
2022/09/25 00:53:37;;;;;;;38.92;26.90;;;;;;;12.93;100.00;100014.19;4890138;29;20056;-73
2022/09/25 00:56:04;;;;;;;35.90;27.00;;;;;;;12.91;100.00;100013.44;4885185;29;20060;-72
2022/09/25 00:58:33;;;;;;;33.38;23.90;;;;;;;12.83;100.00;100005.09;4888779;29;20068;-75
2022/09/25 01:01:00;;;;;;;32.05;22.92;;;;;;;12.84;100.00;100012.13;4889393;29;20056;-71
2022/09/25 01:03:27;;;;;;;32.25;23.80;;;;;;;12.85;100.00;100010.31;4896583;29;20068;-73
2022/09/25 01:05:55;;;;;;;36.03;23.90;;;;;;;12.82;100.00;100003.41;4887231;29;20068;-74
2022/09/25 01:08:25;;;;;;;34.17;23.88;;;;;;;12.80;100.00;99994.66;4889385;29;20072;-74
2022/09/25 01:10:51;;;;;;;34.45;25.58;;;;;;;12.89;100.00;100002.06;4887956;29;20045;-72
2022/09/25 01:13:19;;;;;;;32.17;23.30;;;;;;;12.87;100.00;100001.31;4894639;29;20067;-73
2022/09/25 01:15:50;;;;;;;28.55;21.63;;;;;;;12.67;100.00;99966.31;4892135;29;20056;-71
2022/09/25 01:18:33;;;;;;;27.48;21.70;;;;;;;12.90;100.00;100003.78;4882537;29;20648;-70
2022/09/25 01:21:35;;;;;;;29.48;22.13;;;;;;;12.92;100.00;100007.19;4889474;29;20499;-72
2022/09/25 01:24:07;;;;;;;28.95;22.15;;;;;;;12.92;100.00;100004.53;4889319;29;20064;-72
2022/09/25 01:26:43;;;;;;;28.52;21.75;;;;;;;12.95;100.00;100012.31;4884085;29;20048;-72
2022/09/25 01:29:46;;;;;;;29.20;22.52;;;;;;;12.94;100.00;100013.25;4886207;29;20057;-72
2022/09/25 01:32:13;;;;;;;25.27;19.90;;;;;;;12.94;100.00;100007.09;4886677;29;20044;-72
2022/09/25 01:35:04;;;;;;;28.42;21.08;;;;;;;12.90;100.00;100006.44;4886557;29;20051;-73
2022/09/25 01:37:49;;;;;;;26.67;21.10;;;;;;;12.90;100.00;100010.91;4872708;29;20091;-72
2022/09/25 01:40:32;;;;;;;26.13;20.33;;;;;;;12.90;100.00;100019.72;4887889;29;20048;-71
2022/09/25 01:43:25;;;;;;;26.30;20.90;;;;;;;12.87;100.00;100008.44;4882632;29;20135;-72
2022/09/25 01:46:01;;;;;;;29.15;23.25;;;;;;;12.83;100.00;100007.75;4894613;29;20053;-72
2022/09/25 01:48:31;;;;;;;30.02;21.23;;;;;;;12.80;100.00;100015.06;4879665;29;20095;-72
2022/09/25 01:51:23;;;;;;;27.10;21.48;;;;;;;12.80;100.00;100010.59;4880600;29;20060;-73
2022/09/25 01:54:01;;;;;;;29.33;22.42;;;;;;;12.77;100.00;100010.78;4887368;29;20064;-71
2022/09/25 01:56:45;;;;;;;31.05;23.15;;;;;;;12.75;100.00;100002.06;4887509;29;20078;-73
2022/09/25 01:59:17;;;;;;;28.88;20.25;;;;;;;12.72;100.00;99996.09;4893075;29;20056;-70
2022/09/25 02:01:46;;;;;;;29.35;20.65;;;;;;;12.77;100.00;100008.13;4892333;29;20052;-74
2022/09/25 02:04:21;;;;;;;26.92;20.50;;;;;;;12.78;100.00;99999.22;4894840;29;20483;-72
2022/09/25 02:06:50;;;;;;;28.13;21.45;;;;;;;12.77;100.00;99999.31;4881482;29;20054;-71
2022/09/25 02:09:36;;;;;;;25.35;19.73;;;;;;;12.58;100.00;99965.09;4891553;29;20053;-72
2022/09/25 02:12:11;;;;;;;26.63;20.83;;;;;;;12.75;100.00;99995.91;4881734;29;20123;-69
2022/09/25 02:15:03;;;;;;;27.08;20.55;;;;;;;12.81;100.00;100000.84;4886781;29;20060;-73
2022/09/25 02:20:35;;;;;;;26.38;20.67;;;;;;;12.86;100.00;99993.44;4893071;29;20065;-75
2022/09/25 02:23:16;;;;;;;29.13;21.60;;;;;;;12.82;100.00;99998.09;4881464;29;20060;-71
2022/09/25 02:26:01;;;;;;;33.35;23.50;;;;;;;12.81;100.00;99998.16;4881835;29;20131;-74
2022/09/25 02:28:28;;;;;;;31.17;22.70;;;;;;;12.66;100.00;99976.06;4886971;29;20068;-73
2022/09/25 02:30:58;;;;;;;31.42;23.25;;;;;;;12.78;100.00;99996.56;4884352;29;20434;-73
2022/09/25 02:33:26;;;;;;;31.25;23.65;;;;;;;12.78;100.00;99998.34;4888038;29;20136;-70
2022/09/25 02:35:52;;;;;;;30.80;23.27;;;;;;;12.82;100.00;99995.41;4882538;29;20049;-72
2022/09/25 02:38:20;;;;;;;29.20;22.75;;;;;;;12.83;100.00;99988.31;4889591;29;20045;-70
2022/09/25 02:41:14;;;;;;;31.52;25.23;;;;;;;12.83;100.00;99993.63;4886042;29;20063;-73
2022/09/25 02:44:05;;;;;;;32.90;24.63;;;;;;;12.70;100.00;99982.91;4891703;29;20044;-73
2022/09/25 02:46:54;;;;;;;39.08;27.50;;;;;;;12.67;100.00;99984.91;4889214;29;20076;-74
2022/09/25 02:49:55;;;;;;;38.30;27.70;;;;;;;12.60;100.00;99981.75;4887394;29;20419;-72
2022/09/25 02:52:34;;;;;;;34.40;26.30;;;;;;;12.57;100.00;99985.47;4884872;29;20049;-70
2022/09/25 02:55:29;;;;;;;39.38;28.15;;;;;;;12.42;100.00;99959.88;4886595;29;20060;-75
2022/09/25 02:58:14;;;;;;;42.00;31.17;;;;;;;12.57;100.00;99982.81;4888311;29;20093;-73
2022/09/25 03:00:45;;;;;;;44.67;31.63;;;;;;;12.54;100.00;99984.81;4892741;29;20049;-72
2022/09/25 03:03:15;;;;;;;45.42;33.15;;;;;;;12.55;100.00;99986.53;4900030;29;20096;-73
2022/09/25 03:05:42;;;;;;;45.50;33.27;;;;;;;12.54;100.00;99990.13;4894861;29;20415;-72
2022/09/25 03:10:56;;;;;;;49.58;33.13;;;;;;;12.43;100.00;99971.34;4891776;29;20044;-75
2022/09/25 03:13:30;;;;;;;48.78;33.13;;;;;;;12.49;100.00;99987.72;4896056;29;20064;-73
2022/09/25 03:16:01;;;;;;;56.50;37.53;;;;;;;12.46;100.00;99982.59;4899495;29;20045;-73
2022/09/25 03:18:29;;;;;;;50.42;34.78;;;;;;;12.44;100.00;99976.53;4893112;29;20140;-73
2022/09/25 03:20:57;;;;;;;50.10;33.20;;;;;;;12.51;100.00;99992.97;4894955;29;20067;-73
2022/09/25 03:23:24;;;;;;;50.55;35.95;;;;;;;12.38;100.00;99966.31;4888468;29;20060;-72
2022/09/25 03:25:54;;;;;;;51.85;34.22;;;;;;;12.51;100.00;99987.66;4897665;29;20056;-73
2022/09/25 03:28:22;;;;;;;53.55;36.72;;;;;;;12.52;100.00;99990.22;4892046;29;20052;-72
2022/09/25 03:30:57;;;;;;;51.55;35.42;;;;;;;12.46;100.00;99979.94;4887118;29;20060;-75
2022/09/25 03:33:25;;;;;;;51.55;35.10;;;;;;;12.51;100.00;100000.94;4894220;29;20048;-73
2022/09/25 03:36:03;;;;;;;47.88;34.20;;;;;;;12.27;100.00;99959.00;4888724;29;20052;-72
2022/09/25 03:38:29;;;;;;;52.13;33.08;;;;;;;12.46;100.00;99992.38;4889743;29;20064;-71
2022/09/25 03:40:56;;;;;;;48.88;33.63;;;;;;;12.47;100.00;99988.78;4895649;29;20418;-71
2022/09/25 03:43:22;;;;;;;50.63;34.78;;;;;;;12.47;100.00;99978.16;4887210;29;20060;-71
2022/09/25 03:45:49;;;;;;;47.90;34.63;;;;;;;12.46;100.00;99987.91;4893375;29;20574;-73
2022/09/25 03:48:16;;;;;;;48.83;33.45;;;;;;;12.45;100.00;99985.34;4896618;29;20104;-71
2022/09/25 03:50:45;;;;;;;44.58;31.00;;;;;;;12.39;100.00;99983.94;4898548;29;20074;-71
2022/09/25 03:53:11;;;;;;;43.85;31.27;;;;;;;12.40;100.00;99990.13;4893532;29;20573;-71
2022/09/25 03:55:38;;;;;;;45.42;32.22;;;;;;;12.20;100.00;99952.34;4889520;29;20060;-70
2022/09/25 03:58:04;;;;;;;44.60;32.25;;;;;;;12.17;100.00;99946.34;4894492;29;20452;-74
2022/09/25 04:00:31;;;;;;;42.50;29.17;;;;;;;12.37;100.00;99985.84;4892124;29;20524;-72
2022/09/25 04:02:58;;;;;;;48.38;32.30;;;;;;;12.41;100.00;99986.50;4895365;29;20083;-74
2022/09/25 04:05:24;;;;;;;41.45;29.67;;;;;;;12.44;100.00;99984.50;4889720;29;20049;-71
2022/09/25 04:07:51;;;;;;;42.25;29.88;;;;;;;12.29;100.00;99965.03;4894652;29;20060;-70
2022/09/25 04:10:18;;;;;;;39.75;28.48;;;;;;;12.41;100.00;99984.72;4884796;29;20514;-71
2022/09/25 04:12:44;;;;;;;41.58;28.90;;;;;;;12.39;100.00;99985.75;4886890;29;20056;-71
2022/09/25 04:15:10;;;;;;;39.33;28.58;;;;;;;12.43;100.00;99989.94;4885697;29;20045;-72
2022/09/25 04:17:37;;;;;;;36.85;26.17;;;;;;;12.33;100.00;99972.84;4887882;29;20530;-73
2022/09/25 04:20:04;;;;;;;33.42;25.60;;;;;;;12.34;100.00;99977.19;4848856;29;1131751;-72
2022/09/25 04:22:30;;;;;;;38.78;27.02;;;;;;;12.33;100.00;99973.69;4895711;29;20080;-71
2022/09/25 04:24:57;;;;;;;35.83;26.25;;;;;;;12.38;100.00;99982.25;4883373;29;20053;-71
2022/09/25 04:27:24;;;;;;;32.85;24.67;;;;;;;12.27;100.00;99952.84;4890373;29;20048;-70
2022/09/25 04:29:50;;;;;;;35.22;25.23;;;;;;;12.39;100.00;99983.94;4885438;29;20060;-70
2022/09/25 04:35:02;;;;;;;32.15;22.67;;;;;;;12.38;100.00;99982.25;4886865;29;20120;-72
2022/09/25 04:37:28;;;;;;;30.95;23.42;;;;;;;12.26;100.00;99951.97;4886728;29;20049;-74
2022/09/25 04:39:56;;;;;;;30.77;22.52;;;;;;;12.38;100.00;99979.56;4887580;29;20056;-73
2022/09/25 04:42:24;;;;;;;31.55;23.05;;;;;;;12.39;100.00;99991.06;4889544;29;20045;-73
2022/09/25 04:44:52;;;;;;;29.15;21.67;;;;;;;12.33;100.00;99988.75;4877679;29;20041;-73
2022/09/25 04:47:22;;;;;;;30.58;23.70;;;;;;;12.35;100.00;99992.19;4884308;29;20088;-73
2022/09/25 04:49:49;;;;;;;29.95;22.08;;;;;;;12.36;100.00;99997.41;4888891;29;20060;-73
2022/09/25 04:52:17;;;;;;;28.17;21.17;;;;;;;12.34;100.00;99993.13;4880307;29;20041;-72
2022/09/25 04:54:45;;;;;;;31.15;21.27;;;;;;;12.35;100.00;100002.81;4892555;29;20108;-72
2022/09/25 04:57:21;;;;;;;28.92;22.45;;;;;;;12.35;100.00;99997.50;4892214;29;20057;-73
2022/09/25 05:00:09;;;;;;;29.80;21.00;;;;;;;12.36;100.00;99999.19;4890623;29;20076;-72
2022/09/25 05:02:36;;;;;;;29.67;21.48;;;;;;;12.37;100.00;100001.78;4890208;29;20452;-73
2022/09/25 05:05:03;;;;;;;29.13;21.65;;;;;;;12.40;100.00;100000.72;4892044;29;20067;-72
2022/09/25 05:07:29;;;;;;;28.55;20.85;;;;;;;12.42;100.00;99993.53;4889878;29;20697;-73
2022/09/25 05:09:56;;;;;;;27.67;21.08;;;;;;;12.45;100.00;100003.94;4884176;29;20059;-71
2022/09/25 05:12:22;;;;;;;27.67;20.88;;;;;;;12.46;100.00;100005.66;4886517;29;20072;-72
2022/09/25 05:14:49;;;;;;;27.75;20.42;;;;;;;12.43;100.00;99998.75;4887685;29;20056;-72
2022/09/25 05:17:15;;;;;;;29.85;21.58;;;;;;;12.43;100.00;100005.88;4885227;29;20053;-70
2022/09/25 05:19:42;;;;;;;28.88;21.63;;;;;;;12.41;100.00;99990.03;4893114;29;20067;-73
2022/09/25 05:22:08;;;;;;;29.38;22.25;;;;;;;12.43;100.00;100000.56;4883819;29;20051;-70
2022/09/25 05:24:38;;;;;;;26.95;21.08;;;;;;;12.43;100.00;99993.44;4869267;29;20048;-72
2022/09/25 05:27:04;;;;;;;30.42;21.48;;;;;;;12.29;100.00;99973.00;4887184;29;20087;-71
2022/09/25 05:29:31;;;;;;;31.58;22.88;;;;;;;12.47;100.00;99999.41;4892088;29;20053;-71
2022/09/25 05:31:57;;;;;;;28.90;21.65;;;;;;;12.50;100.00;99999.22;4893551;29;20060;-73
2022/09/25 05:34:24;;;;;;;27.83;21.15;;;;;;;12.34;100.00;99963.91;4881559;29;20056;-72
2022/09/25 05:36:51;;;;;;;30.27;21.10;;;;;;;12.35;100.00;99970.94;4885999;29;20412;-73
2022/09/25 05:39:17;;;;;;;27.80;20.45;;;;;;;12.32;100.00;99976.44;4882617;29;20057;-74
2022/09/25 05:41:44;;;;;;;29.05;20.67;;;;;;;12.43;100.00;100005.88;4888544;29;20052;-74
2022/09/25 05:44:10;;;;;;;29.02;20.70;;;;;;;12.37;100.00;100000.91;4884091;29;20049;-73
2022/09/25 05:46:39;;;;;;;31.00;20.77;;;;;;;12.34;100.00;99998.44;4883912;29;20091;-72
2022/09/25 05:49:06;;;;;;;30.70;21.05;;;;;;;12.37;100.00;100003.56;4882679;29;20061;-73
2022/09/25 05:51:32;;;;;;;32.53;21.42;;;;;;;12.34;100.00;99998.44;4884260;29;20443;-74
2022/09/25 05:53:59;;;;;;;32.85;22.27;;;;;;;12.33;100.00;99996.72;4894096;29;20516;-75
2022/09/25 05:56:26;;;;;;;28.75;20.13;;;;;;;12.36;100.00;100001.84;4887959;29;20056;-73
2022/09/25 05:58:54;;;;;;;28.63;20.85;;;;;;;12.33;100.00;99996.72;4886442;29;20053;-71
2022/09/25 06:01:21;;;;;;;32.58;22.27;;;;;;;12.34;100.00;99999.28;4893629;29;20546;-72
2022/09/25 06:03:48;;;;;;;32.95;22.38;;;;;;;12.18;100.00;99979.91;4894325;29;20056;-74
2022/09/25 06:06:14;;;;;;;32.90;23.08;;;;;;;12.36;100.00;100007.16;4885729;29;20056;-74
2022/09/25 06:08:41;;;;;;;31.13;21.52;;;;;;;12.34;100.00;100001.09;4885990;29;20567;-72
2022/09/25 06:11:10;;;;;;;33.33;21.80;;;;;;;12.30;100.00;99998.63;4887594;29;20056;-75
2022/09/25 06:13:36;;;;;;;32.30;22.00;;;;;;;12.34;100.00;99998.44;4888722;29;20511;-72
2022/09/25 06:16:04;;;;;;;35.85;23.05;;;;;;;12.35;100.00;99994.84;4889211;29;20064;-73
2022/09/25 06:18:32;;;;;;;36.25;23.58;;;;;;;12.37;100.00;100006.22;4885203;29;20502;-70
2022/09/25 06:21:01;;;;;;;36.67;24.27;;;;;;;12.35;100.00;100008.97;4889357;29;20062;-72
2022/09/25 06:23:28;;;;;;;40.55;25.48;;;;;;;12.18;100.00;99980.78;4883274;29;20419;-69
2022/09/25 06:25:59;;;;;;;38.65;25.58;;;;;;;12.29;100.00;99998.72;4891864;29;20048;-70
2022/09/25 06:28:26;;;;;;;39.97;25.52;;;;;;;12.35;100.00;100000.16;4887640;29;20136;-69
2022/09/25 06:30:52;;;;;;;42.95;25.23;;;;;;;12.37;100.00;100006.22;4881741;29;20447;-72
2022/09/25 06:33:19;;;;;;;39.33;25.88;;;;;;;12.37;100.00;100001.78;4890022;29;20048;-72
2022/09/25 06:35:47;;;;;;;40.72;26.83;;;;;;;12.37;100.00;100003.56;4884200;29;20718;-73
2022/09/25 06:38:15;;;;;;;40.55;25.65;;;;;;;12.24;100.00;99987.53;4890386;29;20063;-73
2022/09/25 06:40:42;;;;;;;45.05;26.73;;;;;;;12.38;100.00;100013.25;4886499;29;20055;-74
2022/09/25 06:43:14;;;;;;;41.83;27.27;;;;;;;12.33;100.00;99999.38;4880467;29;20084;-71
2022/09/25 06:45:41;;;;;;;43.55;27.83;;;;;;;12.39;100.00;100015.81;4888990;29;20551;-70
2022/09/25 06:48:13;;;;;;;46.10;27.58;;;;;;;12.40;100.00;100021.97;4883127;29;20053;-69
2022/09/25 06:50:54;;;;;;;43.83;27.98;;;;;;;12.35;100.00;100010.78;4883844;29;20095;-72
2022/09/25 06:53:23;;;;;;;45.58;28.20;;;;;;;12.46;100.00;100021.59;4883186;29;20049;-72
2022/09/25 06:55:50;;;;;;;43.92;26.67;;;;;;;12.48;100.00;100022.34;4885386;29;20476;-72
2022/09/25 06:58:19;;;;;;;42.55;27.20;;;;;;;12.51;100.00;100014.19;4877789;29;20410;-72
2022/09/25 07:00:47;;;;;;;49.05;29.15;;;;;;;12.53;100.00;100012.31;4887202;29;20080;-71
2022/09/25 07:06:00;;;;;;;44.45;27.88;;;;;;;12.61;100.00;100023.31;4887371;29;20082;-75
2022/09/25 07:08:27;;;;;;;52.58;29.15;;;;;;;12.63;100.00;100021.41;4882561;29;20060;-72
2022/09/25 07:10:55;;;;;;;46.38;27.83;;;;;;;12.65;100.00;100017.72;4882277;29;20052;-72
2022/09/25 07:13:28;;;;;;;42.25;26.27;;;;;;;12.62;100.00;100009.06;4883349;29;20071;-75
2022/09/25 07:15:57;;;;;;;45.47;27.10;;;;;;;12.66;100.00;100010.59;4881714;29;20459;-72
2022/09/25 07:18:25;;;;;;;46.63;28.33;;;;;;;12.72;100.00;100014.69;4888686;29;20040;-73
2022/09/25 07:20:52;;;;;;;48.03;27.67;;;;;;;12.59;100.00;99983.56;4892470;29;20075;-72
2022/09/25 07:23:21;;;;;;;43.45;27.50;;;;;;;12.60;100.00;99979.09;4862196;29;20052;-73
2022/09/25 07:25:48;;;;;;;42.50;26.25;;;;;;;12.84;100.00;100009.47;4884378;29;20044;-73
2022/09/25 07:28:17;;;;;;;44.83;27.38;;;;;;;12.84;100.00;100006.81;4887724;29;20488;-74
2022/09/25 07:30:44;;;;;;;44.05;26.40;;;;;;;12.70;100.00;99980.25;4886534;29;20418;-72
2022/09/25 07:33:11;;;;;;;40.38;26.23;;;;;;;12.93;100.00;100008.88;4881514;29;20818;-73
2022/09/25 07:35:38;;;;;;;44.13;27.67;;;;;;;12.77;100.00;99986.88;4880218;29;20061;-72
2022/09/25 07:38:05;;;;;;;42.15;25.63;;;;;;;12.76;100.00;99986.97;4874391;29;20111;-70
2022/09/25 07:40:34;;;;;;;42.75;26.52;;;;;;;12.79;100.00;99990.28;4883579;29;20065;-72
2022/09/25 07:43:01;;;;;;;44.15;26.60;;;;;;;13.04;100.00;100018.00;4884614;29;20499;-74
2022/09/25 07:45:28;;;;;;;42.20;26.15;;;;;;;13.07;100.00;100023.97;4889435;29;20064;-76
2022/09/25 07:48:00;;;;;;;40.65;26.10;;;;;;;13.05;100.00;100014.41;4897006;29;20186;-74
2022/09/25 07:50:30;;;;;;;38.80;24.45;;;;;;;12.95;100.00;100000.81;4894415;29;20045;-72
2022/09/25 07:52:57;;;;;;;37.67;25.13;;;;;;;12.85;100.00;99997.91;4895279;29;20057;-73
2022/09/25 07:55:26;;;;;;;37.42;24.67;;;;;;;12.97;100.00;100029.00;4890149;29;20084;-72
2022/09/25 07:57:56;;;;;;;40.17;25.45;;;;;;;12.94;100.00;100029.19;4895513;29;20055;-70
2022/09/25 08:00:23;;;;;;;41.80;25.77;;;;;;;12.88;100.00;100023.44;4892594;29;20082;-73
2022/09/25 08:02:57;;;;;;;37.63;24.38;;;;;;;12.86;100.00;100028.84;4894018;29;20414;-70
2022/09/25 08:05:26;;;;;;;40.63;25.35;;;;;;;12.80;100.00;100037.19;4887140;29;20049;-69
2022/09/25 08:07:53;;;;;;;39.92;25.27;;;;;;;12.70;100.00;100024.56;4892548;29;20897;-71
2022/09/25 08:10:20;;;;;;;39.45;24.40;;;;;;;12.71;100.00;100026.28;4884191;29;20052;-71
2022/09/25 08:12:48;;;;;;;40.65;25.77;;;;;;;12.59;100.00;100001.31;4889791;29;20487;-71
2022/09/25 08:15:15;;;;;;;42.00;26.00;;;;;;;12.80;100.00;100041.63;4885587;29;20056;-72
2022/09/25 08:17:42;;;;;;;37.30;24.08;;;;;;;12.87;100.00;100032.34;4888032;29;20534;-73
2022/09/25 08:20:09;;;;;;;40.90;25.95;;;;;;;12.87;100.00;100027.03;4890806;29;20053;-73
2022/09/25 08:22:35;;;;;;;37.10;24.98;;;;;;;12.87;100.00;100033.19;4895271;29;20083;-72
2022/09/25 08:25:02;;;;;;;39.30;25.30;;;;;;;12.91;100.00;100047.13;4886391;29;20623;-70
2022/09/25 08:27:29;;;;;;;39.15;24.83;;;;;;;12.91;100.00;100033.84;4890120;29;20052;-78
2022/09/25 08:29:56;;;;;;;43.28;26.20;;;;;;;12.90;100.00;100038.34;4884560;29;20075;-73
2022/09/25 08:32:23;;;;;;;40.17;26.17;;;;;;;12.93;100.00;100039.91;4890804;29;20048;-72
2022/09/25 08:34:49;;;;;;;36.35;24.80;;;;;;;12.94;100.00;100037.16;4885944;29;20514;-73
2022/09/25 08:37:17;;;;;;;39.60;24.48;;;;;;;12.99;100.00;100042.22;4886090;29;20517;-73
2022/09/25 08:39:43;;;;;;;36.83;23.75;;;;;;;12.99;100.00;100040.41;4884373;29;20053;-70
2022/09/25 08:42:18;;;;;;;38.90;23.85;;;;;;;13.00;100.00;100034.16;4890092;29;20060;-73
2022/09/25 08:49:00;;;;;;;40.80;24.48;;;;;;;13.09;100.00;100035.34;4885071;29;20055;-67
2022/09/25 08:50:36;;;;;;;38.30;24.70;;;;;;;13.24;100.00;100037.06;4880911;29;20060;-72
2022/09/25 08:53:12;;;;;;;35.20;23.52;;;;;;;13.09;100.00;100011.44;4887940;29;20460;-75
2022/09/25 08:58:29;;;;;;;39.05;24.10;;;;;;;13.26;100.00;100032.53;4890873;29;20074;-74
2022/09/25 09:01:06;;;;;;;38.38;24.70;;;;;;;13.28;100.00;100029.75;4891388;29;20529;-74
2022/09/25 09:03:46;;;;;;;34.42;22.52;;;;;;;13.32;100.00;100032.13;4890662;29;20100;-70
2022/09/25 09:06:15;;;;;;;34.00;23.30;;;;;;;13.48;100.00;100028.50;4886703;29;20057;-69
2022/09/25 09:08:47;;;;;;;38.10;24.85;;;;;;;13.53;100.00;100035.22;4887073;29;20056;-69
2022/09/25 09:11:19;;;;;;;33.80;22.55;;;;;;;13.64;100.00;100034.53;4892833;29;20175;-71
2022/09/25 09:13:51;;;;;;;33.22;22.45;;;;;;;13.67;100.00;100037.84;4889652;29;20068;-68
2022/09/25 09:16:28;;;;;;;37.20;23.80;;;;;;;13.51;100.00;100002.56;4888544;29;20055;-73
2022/09/25 09:18:55;;;;;;;33.85;23.00;;;;;;;13.66;100.00;100033.47;4887690;29;20044;-71
2022/09/25 09:21:56;;;;;;;33.47;23.63;;;;;;;13.63;100.00;100031.00;4893226;29;20060;-70
2022/09/25 09:24:35;;;;;;;34.00;22.48;;;;;;;13.65;100.00;100041.56;4866285;29;20132;-71
2022/09/25 09:27:20;;;;;;;32.40;22.45;;;;;;;13.62;100.00;100041.75;4888796;29;20059;-72
2022/09/25 09:29:59;;;;;;;32.35;22.33;;;;;;;13.44;100.00;100011.00;4887922;29;20515;-71
2022/09/25 09:32:49;;;;;;;33.03;21.70;;;;;;;13.62;100.00;100041.75;4891059;29;20049;-71
2022/09/25 09:35:35;;;;;;;33.17;23.23;;;;;;;13.63;100.00;100044.31;4887040;29;20057;-72
2022/09/25 09:38:43;;;;;;;32.28;22.27;;;;;;;13.62;100.00;100036.44;4885146;29;20056;-71
2022/09/25 09:41:12;;;;;;;31.20;22.10;;;;;;;13.54;100.00;100038.72;4888048;29;20057;-71
2022/09/25 09:43:38;;;;;;;34.38;22.08;;;;;;;13.53;100.00;100040.56;4888832;29;20068;-70
2022/09/25 09:46:24;;;;;;;32.40;21.73;;;;;;;13.55;100.00;100035.97;4891343;29;20063;-72
2022/09/25 09:49:24;;;;;;;28.48;20.35;;;;;;;13.65;100.00;100025.59;4886976;29;20056;-73
2022/09/25 09:52:03;;;;;;;31.85;22.05;;;;;;;13.73;100.00;100025.06;4885662;29;20326;-71
2022/09/25 09:54:38;;;;;;;32.40;21.90;;;;;;;13.73;100.00;100033.91;4891353;29;20052;-68
2022/09/25 09:57:14;;;;;;;29.95;21.70;;;;;;;13.74;100.00;100029.44;4886032;29;20071;-72
2022/09/25 09:59:47;;;;;;;30.65;21.35;;;;;;;13.73;100.00;100023.25;4889242;29;20075;-69
2022/09/25 10:02:39;;;;;;;35.25;22.33;;;;;;;13.73;100.00;100028.59;4887445;29;20060;-76
2022/09/25 10:05:22;;;;;;;29.23;20.70;;;;;;;13.74;100.00;100032.97;4887772;29;20556;-69
2022/09/25 10:07:50;;;;;;;28.70;20.17;;;;;;;13.73;100.00;100031.25;4889124;29;20064;-71
2022/09/25 10:10:18;;;;;;;28.38;19.98;;;;;;;13.87;100.00;100030.34;4883487;29;20071;-70
2022/09/25 10:12:52;;;;;;;26.65;19.40;;;;;;;13.93;100.00;100032.59;4885929;29;20060;-71
2022/09/25 10:15:33;;;;;;;29.23;21.08;;;;;;;13.96;100.00;100024.41;4885371;29;20064;-74
2022/09/25 10:18:02;;;;;;;27.30;20.25;;;;;;;13.96;100.00;100027.06;4884882;29;20606;-74
2022/09/25 10:20:40;;;;;;;26.98;19.40;;;;;;;13.96;100.00;100027.94;4890330;29;20067;-75
2022/09/25 10:23:51;;;;;;;26.88;19.65;;;;;;;14.00;100.00;100029.44;4882897;29;20051;-73
2022/09/25 10:26:37;;;;;;;29.10;20.50;;;;;;;13.98;100.00;100027.84;4856599;29;20057;-73
2022/09/25 10:29:25;;;;;;;26.15;20.08;;;;;;;13.88;100.00;100026.72;4889007;29;20068;-70
2022/09/25 10:32:02;;;;;;;27.73;18.75;;;;;;;13.84;100.00;100026.09;4893308;29;20048;-73
2022/09/25 10:34:30;;;;;;;26.23;19.15;;;;;;;13.74;100.00;100027.63;4887156;29;20053;-73
2022/09/25 10:36:57;;;;;;;27.55;19.10;;;;;;;13.57;100.00;100033.19;4885460;29;20135;-71
2022/09/25 10:39:32;;;;;;;26.65;19.95;;;;;;;13.48;100.00;100037.31;4882728;29;20059;-73
2022/09/25 10:42:32;;;;;;;26.58;18.77;;;;;;;13.43;100.00;100034.09;4887866;29;20064;-73
2022/09/25 10:44:58;;;;;;;23.63;17.63;;;;;;;13.37;100.00;100033.66;4886779;29;20052;-75
2022/09/25 10:50:20;;;;;;;21.10;16.00;;;;;;;13.26;100.00;100042.28;4885832;29;20136;-70
2022/09/25 10:52:58;;;;;;;20.10;15.52;;;;;;;13.03;100.00;100006.53;4882485;29;20395;-72
2022/09/25 10:55:34;;;;;;;19.30;14.25;;;;;;;13.15;100.00;100037.66;4881577;29;20139;-72
2022/09/25 10:58:26;;;;;;;18.98;13.43;;;;;;;13.06;100.00;100038.22;4887932;29;20499;-72
2022/09/25 11:00:56;;;;;;;18.98;14.13;;;;;;;13.07;100.00;100039.06;4887672;29;20143;-74
2022/09/25 11:03:23;;;;;;;16.40;14.10;;;;;;;12.89;100.00;100015.38;4887317;29;20052;-74
2022/09/25 11:05:56;;;;;;;17.80;13.77;;;;;;;12.97;100.00;100041.44;4890818;29;20139;-75
2022/09/25 11:08:28;;;;;;;16.98;13.13;;;;;;;13.01;100.00;100042.97;4881606;29;20049;-75
2022/09/25 11:10:58;;;;;;;16.20;12.80;;;;;;;13.00;100.00;100036.81;4885649;29;20053;-72
2022/09/25 11:13:28;;;;;;;13.27;10.38;;;;;;;13.08;100.00;100035.44;4882487;29;20075;-71
2022/09/25 11:15:59;;;;;;;12.65;10.93;;;;;;;13.08;100.00;100043.41;4885849;29;20048;-73
2022/09/25 11:18:45;;;;;;;14.13;10.05;;;;;;;13.18;100.00;100057.91;4882718;29;20052;-73
2022/09/25 11:21:20;;;;;;;10.77;7.97;;;;;;;13.04;100.00;100031.31;4892331;29;20081;-71
2022/09/25 11:24:03;;;;;;;11.07;8.27;;;;;;;13.00;100.00;100026.16;4890074;29;20487;-74
2022/09/25 11:26:36;;;;;;;9.50;7.60;;;;;;;13.20;100.00;100054.19;4887383;29;20055;-72
2022/09/25 11:29:25;;;;;;;11.50;8.00;;;;;;;13.29;100.00;100050.09;4894991;29;20487;-73
2022/09/25 11:32:03;;;;;;;9.55;6.93;;;;;;;13.29;100.00;100044.78;4888043;29;20151;-71
2022/09/25 11:34:53;;;;;;;9.93;6.57;;;;;;;13.20;100.00;100016.13;4890166;29;20112;-73
2022/09/25 11:37:33;;;;;;;8.02;5.25;;;;;;;13.34;100.00;100050.66;4891833;29;20077;-72
2022/09/25 11:43:11;;;;;;;8.40;3.88;;;;;;;13.28;100.00;100040.41;4887004;29;19931;-75
2022/09/25 11:46:06;;;;;;;5.65;4.05;;;;;;;13.22;100.00;100052.28;4890313;29;20052;-71
2022/09/25 11:48:49;;;;;;;8.20;4.13;;;;;;;13.09;100.00;100035.34;4887435;29;20056;-77
2022/09/25 11:51:45;;;;;;;7.43;4.13;;;;;;;13.15;100.00;100048.31;4889129;29;20101;-71